Time;durP1;ratioP1;P1;durP2;ratioP2;P2;SDS_P1;SDS_P2;PMS_P1;PMS_P2;Temp;Humidity;BMP_temperature;BMP_pressure;BME280_temperature;BME280_humidity;BME280_pressure;Samples;Min_cycle;Max_cycle;Signal;HPM_P1;HPM_P2
2022/04/17 00:02:16;;;;;;;;;;;4.30;99.90;;;;;;5108814;28;19916;-43
2022/04/17 00:04:42;;;;;;;;;;;4.30;99.90;;;;;;5075903;28;19916;-43
2022/04/17 00:07:07;;;;;;;;;;;4.30;99.90;;;;;;5076224;28;20390;-42
2022/04/17 00:09:33;;;;;;;;;;;4.20;99.90;;;;;;5075839;28;19908;-47
2022/04/17 00:12:01;;;;;;;;;;;4.20;99.90;;;;;;5075748;28;20228;-45
2022/04/17 00:14:27;;;;;;;;;;;4.20;99.90;;;;;;5075666;28;19908;-44
2022/04/17 00:16:54;;;;;;;;;;;4.20;99.90;;;;;;5075964;28;19912;-49
2022/04/17 00:19:20;;;;;;;;;;;4.20;99.90;;;;;;5075963;28;19917;-43
2022/04/17 00:21:46;;;;;;;;;;;4.10;99.90;;;;;;5075987;28;19995;-44
2022/04/17 00:24:12;;;;;;;;;;;4.10;99.90;;;;;;5075668;28;19955;-43
2022/04/17 00:26:38;;;;;;;;;;;4.10;99.90;;;;;;5075619;28;20363;-44
2022/04/17 00:29:03;;;;;;;;;;;4.00;99.90;;;;;;5075441;28;19909;-43
2022/04/17 00:31:29;;;;;;;;;;;4.00;99.90;;;;;;5075710;28;19915;-43
2022/04/17 00:33:54;;;;;;;;;;;4.10;99.90;;;;;;5075810;28;20000;-45
2022/04/17 00:36:20;;;;;;;;;;;4.00;99.90;;;;;;5075294;28;19928;-46
2022/04/17 00:38:45;;;;;;;;;;;4.00;99.90;;;;;;5075203;28;19913;-46
2022/04/17 00:41:11;;;;;;;;;;;4.00;99.90;;;;;;5075791;28;19909;-44
2022/04/17 00:43:43;;;;;;;;;;;4.00;99.90;;;;;;5107979;28;19909;-43
2022/04/17 00:46:08;;;;;;;;;;;3.90;99.90;;;;;;5075329;28;20011;-44
2022/04/17 00:48:34;;;;;;;;;;;4.00;99.90;;;;;;5075656;28;19908;-43
2022/04/17 00:51:00;;;;;;;;;;;4.00;99.90;;;;;;5075269;28;19913;-43
2022/04/17 00:53:26;;;;;;;;;;;4.00;99.90;;;;;;5074900;28;19923;-45
2022/04/17 00:55:52;;;;;;;;;;;4.00;99.90;;;;;;5074962;28;19913;-42
2022/04/17 00:58:18;;;;;;;;;;;4.00;99.90;;;;;;5074796;28;19920;-44
2022/04/17 01:00:45;;;;;;;;;;;4.00;99.90;;;;;;5075170;28;20267;-47
2022/04/17 01:03:11;;;;;;;;;;;4.00;99.90;;;;;;5074947;28;19909;-46
2022/04/17 01:05:39;;;;;;;;;;;4.00;99.90;;;;;;5090843;28;19954;-45
2022/04/17 01:08:06;;;;;;;;;;;4.00;99.90;;;;;;5074629;28;20375;-43
2022/04/17 01:10:32;;;;;;;;;;;4.00;99.90;;;;;;5074970;28;19909;-45
2022/04/17 01:12:58;;;;;;;;;;;4.00;99.90;;;;;;5075033;28;20042;-45
2022/04/17 01:15:24;;;;;;;;;;;4.00;99.90;;;;;;5074805;28;20327;-43
2022/04/17 01:17:49;;;;;;;;;;;4.00;99.90;;;;;;5074950;28;20001;-44
2022/04/17 01:20:16;;;;;;;;;;;4.00;99.90;;;;;;5074445;28;20351;-47
2022/04/17 01:22:48;;;;;;;;;;;4.00;99.90;;;;;;5074377;28;19916;-45
2022/04/17 01:27:57;;;;;;;;;;;4.00;99.90;;;;;;5074240;28;20001;-48
2022/04/17 01:30:23;;;;;;;;;;;4.00;99.90;;;;;;5074475;28;19908;-48
2022/04/17 01:32:48;;;;;;;;;;;4.00;99.90;;;;;;5074299;28;20447;-46
2022/04/17 01:35:14;;;;;;;;;;;4.00;99.90;;;;;;5074301;28;19908;-45
2022/04/17 01:37:39;;;;;;;;;;;4.00;99.90;;;;;;5074144;28;20298;-43
2022/04/17 01:40:05;;;;;;;;;;;4.00;99.90;;;;;;5074782;28;20258;-43
2022/04/17 01:42:31;;;;;;;;;;;3.90;99.90;;;;;;5074350;28;19987;-45
2022/04/17 01:44:56;;;;;;;;;;;3.90;99.90;;;;;;5074395;28;20021;-44
2022/04/17 01:47:22;;;;;;;;;;;3.90;99.90;;;;;;5074245;28;19908;-47
2022/04/17 01:49:47;;;;;;;;;;;3.90;99.90;;;;;;5074411;28;20054;-43
2022/04/17 01:52:13;;;;;;;;;;;3.90;99.90;;;;;;5073938;28;20347;-44
2022/04/17 01:54:38;;;;;;;;;;;3.90;99.90;;;;;;5074587;28;19909;-46
2022/04/17 01:57:04;;;;;;;;;;;3.80;99.90;;;;;;5073562;28;19962;-46
2022/04/17 01:59:29;;;;;;;;;;;3.80;99.90;;;;;;5073938;28;19916;-44
2022/04/17 02:01:55;;;;;;;;;;;3.70;99.90;;;;;;5073657;28;19915;-44
2022/04/17 02:04:20;;;;;;;;;;;3.70;99.90;;;;;;5073638;28;19916;-45
2022/04/17 02:06:47;;;;;;;;;;;3.60;99.90;;;;;;5074004;28;19909;-45
2022/04/17 02:09:14;;;;;;;;;;;3.60;99.90;;;;;;5074259;28;19950;-44
2022/04/17 02:11:39;;;;;;;;;;;3.60;99.90;;;;;;5074007;28;19954;-44
2022/04/17 02:14:06;;;;;;;;;;;3.60;99.90;;;;;;5073881;28;19908;-46
2022/04/17 02:16:32;;;;;;;;;;;3.50;99.90;;;;;;5073767;28;20244;-47
2022/04/17 02:18:57;;;;;;;;;;;3.50;99.90;;;;;;5073866;28;19934;-45
2022/04/17 02:21:23;;;;;;;;;;;3.50;99.90;;;;;;5073833;28;20047;-45
2022/04/17 02:23:48;;;;;;;;;;;3.50;99.90;;;;;;5073541;28;19991;-46
2022/04/17 02:26:16;;;;;;;;;;;3.50;99.90;;;;;;5073550;28;19961;-46
2022/04/17 02:28:42;;;;;;;;;;;3.40;99.90;;;;;;5073444;28;19908;-44
2022/04/17 02:31:08;;;;;;;;;;;3.40;99.90;;;;;;5073401;28;20256;-43
2022/04/17 02:33:34;;;;;;;;;;;3.40;99.90;;;;;;5073785;28;19920;-44
2022/04/17 02:35:59;;;;;;;;;;;3.40;99.90;;;;;;5073641;28;19923;-44
2022/04/17 02:38:25;;;;;;;;;;;3.40;99.90;;;;;;5072314;28;19912;-44
2022/04/17 02:40:51;;;;;;;;;;;3.40;99.90;;;;;;5073441;28;20351;-44
2022/04/17 02:43:17;;;;;;;;;;;3.40;99.90;;;;;;5073641;28;19970;-47
2022/04/17 02:45:42;;;;;;;;;;;3.40;99.90;;;;;;5073260;28;19916;-45
2022/04/17 02:48:08;;;;;;;;;;;3.40;99.90;;;;;;5075236;28;19923;-43
2022/04/17 02:50:33;;;;;;;;;;;3.30;99.90;;;;;;5077651;28;20347;-44
2022/04/17 02:52:59;;;;;;;;;;;3.40;99.90;;;;;;5077366;28;19948;-44
2022/04/17 02:55:24;;;;;;;;;;;3.30;99.90;;;;;;5077056;28;19958;-45
2022/04/17 02:57:50;;;;;;;;;;;3.40;99.90;;;;;;5093081;28;19913;-52
2022/04/17 03:00:16;;;;;;;;;;;3.40;99.90;;;;;;5077586;28;19912;-43
2022/04/17 03:05:38;;;;;;;;;;;3.20;99.90;;;;;;5077416;28;19915;-43
2022/04/17 03:08:04;;;;;;;;;;;3.30;99.90;;;;;;5076971;28;19919;-43
2022/04/17 03:10:30;;;;;;;;;;;3.20;99.90;;;;;;5077179;28;19913;-42
2022/04/17 03:12:56;;;;;;;;;;;3.20;99.90;;;;;;5076849;28;19931;-44
2022/04/17 03:15:22;;;;;;;;;;;3.20;99.90;;;;;;5076772;28;19908;-44
2022/04/17 03:17:48;;;;;;;;;;;3.20;99.90;;;;;;5076928;28;19927;-44
2022/04/17 03:20:14;;;;;;;;;;;3.20;99.90;;;;;;5076754;28;19915;-46
2022/04/17 03:22:41;;;;;;;;;;;3.20;99.90;;;;;;5076627;28;19931;-44
2022/04/17 03:25:06;;;;;;;;;;;3.20;99.90;;;;;;5076570;28;20262;-43
2022/04/17 03:27:32;;;;;;;;;;;3.20;99.90;;;;;;5076510;28;19995;-44
2022/04/17 03:29:57;;;;;;;;;;;3.10;99.90;;;;;;5076637;28;19978;-43
2022/04/17 03:32:23;;;;;;;;;;;3.20;99.90;;;;;;5076764;28;19921;-45
2022/04/17 03:34:49;;;;;;;;;;;3.20;99.90;;;;;;5076591;28;20363;-45
2022/04/17 03:37:15;;;;;;;;;;;3.10;99.90;;;;;;5075562;28;19919;-43
2022/04/17 03:39:41;;;;;;;;;;;3.10;99.90;;;;;;5075465;28;20022;-43
2022/04/17 03:42:06;;;;;;;;;;;3.10;99.90;;;;;;5075412;28;20019;-44
2022/04/17 03:44:33;;;;;;;;;;;3.20;99.90;;;;;;5076446;28;20264;-44
2022/04/17 03:46:58;;;;;;;;;;;3.10;99.90;;;;;;5076657;28;20338;-44
2022/04/17 03:49:24;;;;;;;;;;;3.10;99.90;;;;;;5076653;28;19948;-44
2022/04/17 03:51:49;;;;;;;;;;;3.00;99.90;;;;;;5092179;28;19966;-45
2022/04/17 03:54:16;;;;;;;;;;;3.00;99.90;;;;;;5076207;28;20324;-44
2022/04/17 03:56:43;;;;;;;;;;;3.00;99.90;;;;;;5076465;28;19939;-45
2022/04/17 03:59:09;;;;;;;;;;;3.00;99.90;;;;;;5075808;28;20049;-45
2022/04/17 04:01:34;;;;;;;;;;;3.00;99.90;;;;;;5076491;28;20339;-45
2022/04/17 04:04:00;;;;;;;;;;;2.90;99.90;;;;;;5075882;28;19999;-45
2022/04/17 04:06:26;;;;;;;;;;;3.00;99.90;;;;;;5075911;28;19909;-44
2022/04/17 04:08:51;;;;;;;;;;;2.90;99.90;;;;;;5076196;28;19912;-44
2022/04/17 04:11:17;;;;;;;;;;;2.90;99.90;;;;;;5076171;28;19908;-45
2022/04/17 04:13:43;;;;;;;;;;;2.80;99.90;;;;;;5076130;28;19908;-44
2022/04/17 04:16:09;;;;;;;;;;;2.80;99.90;;;;;;5075897;28;20275;-44
2022/04/17 04:18:34;;;;;;;;;;;2.80;99.90;;;;;;5076100;28;19963;-44
2022/04/17 04:21:00;;;;;;;;;;;2.80;99.90;;;;;;5075563;28;19919;-46
2022/04/17 04:23:26;;;;;;;;;;;2.90;99.90;;;;;;5075970;28;19908;-44
2022/04/17 04:25:51;;;;;;;;;;;2.90;99.90;;;;;;5075536;28;19909;-46
2022/04/17 04:28:33;;;;;;;;;;;2.80;99.90;;;;;;5075505;28;19953;-45
2022/04/17 04:31:02;;;;;;;;;;;2.90;99.90;;;;;;5075757;28;20243;-43
2022/04/17 04:33:31;;;;;;;;;;;2.90;99.90;;;;;;5074041;28;19969;-45
2022/04/17 04:35:58;;;;;;;;;;;2.90;99.90;;;;;;5075374;28;19912;-45
2022/04/17 04:38:24;;;;;;;;;;;2.90;99.90;;;;;;5075433;28;19924;-45
2022/04/17 04:40:49;;;;;;;;;;;2.90;99.90;;;;;;5075518;28;19913;-49
2022/04/17 04:43:16;;;;;;;;;;;2.80;99.90;;;;;;5075268;28;19994;-44
2022/04/17 04:51:09;;;;;;;;;;;2.90;99.90;;;;;;5074918;28;19953;-44
2022/04/17 04:53:35;;;;;;;;;;;3.10;99.90;;;;;;5075170;28;20003;-45
2022/04/17 04:56:00;;;;;;;;;;;3.30;99.90;;;;;;5074762;28;19912;-45
2022/04/17 04:58:26;;;;;;;;;;;3.40;99.90;;;;;;5075078;28;19912;-44
2022/04/17 05:00:51;;;;;;;;;;;3.60;99.90;;;;;;5074598;28;20309;-45
2022/04/17 05:03:17;;;;;;;;;;;3.70;99.90;;;;;;5074603;28;19908;-44
2022/04/17 05:05:42;;;;;;;;;;;3.80;99.90;;;;;;5074969;28;19908;-43
2022/04/17 05:08:08;;;;;;;;;;;3.80;99.90;;;;;;5074353;28;19999;-44
2022/04/17 05:10:33;;;;;;;;;;;3.90;99.90;;;;;;5074120;28;19971;-46
2022/04/17 05:12:59;;;;;;;;;;;4.00;99.90;;;;;;5073847;28;19908;-48
2022/04/17 05:15:24;;;;;;;;;;;4.00;99.90;;;;;;5074350;28;19916;-46
2022/04/17 05:17:50;;;;;;;;;;;4.00;99.90;;;;;;5074768;28;19922;-43
2022/04/17 05:20:15;;;;;;;;;;;4.00;99.90;;;;;;5074650;28;20351;-48
2022/04/17 05:22:43;;;;;;;;;;;4.00;99.90;;;;;;5074725;28;19915;-46
2022/04/17 05:25:09;;;;;;;;;;;4.00;99.90;;;;;;5074610;28;20011;-42
2022/04/17 05:27:34;;;;;;;;;;;4.20;99.90;;;;;;5074961;28;19962;-44
2022/04/17 05:29:59;;;;;;;;;;;4.30;99.90;;;;;;5074539;28;19912;-44
2022/04/17 05:32:33;;;;;;;;;;;4.30;99.90;;;;;;5131968;27;19926;-45
2022/04/17 05:34:59;;;;;;;;;;;4.30;99.90;;;;;;5131747;28;19990;-46
2022/04/17 05:37:24;;;;;;;;;;;4.30;99.90;;;;;;5132065;28;20353;-45
2022/04/17 05:39:50;;;;;;;;;;;4.30;99.90;;;;;;5131396;28;19908;-46
2022/04/17 05:42:15;;;;;;;;;;;4.40;99.90;;;;;;5131995;28;20265;-44
2022/04/17 05:44:41;;;;;;;;;;;4.30;99.90;;;;;;5131488;28;19911;-44
2022/04/17 05:47:06;;;;;;;;;;;4.20;99.90;;;;;;5131880;28;19912;-46
2022/04/17 05:49:32;;;;;;;;;;;4.30;99.90;;;;;;5131417;28;19912;-44
2022/04/17 05:51:58;;;;;;;;;;;4.40;99.90;;;;;;5131671;28;19923;-47
2022/04/17 05:54:24;;;;;;;;;;;4.50;99.90;;;;;;5131457;28;19907;-46
2022/04/17 05:56:49;;;;;;;;;;;4.50;99.90;;;;;;5131914;28;20274;-44
2022/04/17 05:59:15;;;;;;;;;;;4.30;99.90;;;;;;5131543;28;19908;-45
2022/04/17 06:01:40;;;;;;;;;;;4.40;99.90;;;;;;5131608;28;19999;-45
2022/04/17 06:04:06;;;;;;;;;;;4.40;99.90;;;;;;5131410;28;19912;-46
2022/04/17 06:06:31;;;;;;;;;;;4.50;99.90;;;;;;5147354;27;19947;-45
2022/04/17 06:08:57;;;;;;;;;;;4.60;99.90;;;;;;5131864;28;20255;-46
2022/04/17 06:11:22;;;;;;;;;;;4.70;99.90;;;;;;5131043;28;19916;-46
2022/04/17 06:13:48;;;;;;;;;;;4.70;99.90;;;;;;5131158;28;20007;-44
2022/04/17 06:16:14;;;;;;;;;;;4.80;99.90;;;;;;5131429;28;19934;-44
2022/04/17 06:18:39;;;;;;;;;;;4.90;99.90;;;;;;5131365;28;20247;-45
2022/04/17 06:21:05;;;;;;;;;;;4.90;99.90;;;;;;5131294;28;19919;-46
2022/04/17 06:23:31;;;;;;;;;;;4.90;99.90;;;;;;5112825;28;20319;-44
2022/04/17 06:25:59;;;;;;;;;;;5.00;99.90;;;;;;5147068;27;19908;-47
2022/04/17 06:28:24;;;;;;;;;;;5.10;99.90;;;;;;5130534;28;19999;-45
2022/04/17 06:30:49;;;;;;;;;;;5.20;99.90;;;;;;5130375;28;20006;-43
2022/04/17 06:33:15;;;;;;;;;;;5.40;99.90;;;;;;5130548;28;20328;-45
2022/04/17 06:35:40;;;;;;;;;;;5.40;99.90;;;;;;5130936;28;19915;-43
2022/04/17 06:38:10;;;;;;;;;;;5.50;99.90;;;;;;5130652;28;20161;-44
2022/04/17 06:40:36;;;;;;;;;;;5.80;99.90;;;;;;5130827;28;19981;-46
2022/04/17 06:43:05;;;;;;;;;;;5.70;99.90;;;;;;5121966;28;19994;-43
2022/04/17 06:45:31;;;;;;;;;;;5.60;99.90;;;;;;5116915;28;20274;-45
2022/04/17 06:47:57;;;;;;;;;;;5.70;99.90;;;;;;5117115;28;19912;-47
2022/04/17 06:50:23;;;;;;;;;;;5.90;99.90;;;;;;5116519;28;19961;-44
2022/04/17 06:52:49;;;;;;;;;;;5.90;99.90;;;;;;5116682;28;19919;-44
2022/04/17 06:55:14;;;;;;;;;;;6.00;99.90;;;;;;5116290;28;20286;-46
2022/04/17 06:57:47;;;;;;;;;;;6.00;99.90;;;;;;5116750;28;19908;-45
2022/04/17 07:00:13;;;;;;;;;;;6.20;99.90;;;;;;5116715;28;19907;-44
2022/04/17 07:02:39;;;;;;;;;;;6.30;99.90;;;;;;5116220;28;20387;-44
2022/04/17 07:05:05;;;;;;;;;;;6.40;99.90;;;;;;5132317;27;19960;-44
2022/04/17 07:07:31;;;;;;;;;;;6.60;99.90;;;;;;5117085;28;20003;-43
2022/04/17 07:09:57;;;;;;;;;;;6.60;99.90;;;;;;5117076;28;19973;-45
2022/04/17 07:12:22;;;;;;;;;;;6.70;99.90;;;;;;5116414;28;19919;-43
2022/04/17 07:14:48;;;;;;;;;;;6.80;99.90;;;;;;5116539;28;19912;-44
2022/04/17 07:17:14;;;;;;;;;;;6.90;99.90;;;;;;5116033;28;19915;-46
2022/04/17 07:19:39;;;;;;;;;;;7.00;99.90;;;;;;5116415;28;19908;-44
2022/04/17 07:22:05;;;;;;;;;;;7.00;98.80;;;;;;5115971;28;19908;-44
2022/04/17 07:24:30;;;;;;;;;;;7.00;98.90;;;;;;5115696;28;19908;-43
2022/04/17 07:26:56;;;;;;;;;;;7.10;98.90;;;;;;5115983;28;20350;-46
2022/04/17 07:29:22;;;;;;;;;;;7.00;98.50;;;;;;5115853;28;19951;-44
2022/04/17 07:31:53;;;;;;;;;;;7.30;98.10;;;;;;5115936;28;19974;-46
2022/04/17 07:34:21;;;;;;;;;;;7.20;97.30;;;;;;5116187;28;19914;-46
2022/04/17 07:36:47;;;;;;;;;;;7.20;97.70;;;;;;5116075;28;19918;-44
2022/04/17 07:39:16;;;;;;;;;;;7.30;97.60;;;;;;5115922;28;20261;-44
2022/04/17 07:41:42;;;;;;;;;;;7.40;97.70;;;;;;5115837;28;19995;-48
2022/04/17 07:44:11;;;;;;;;;;;7.50;97.30;;;;;;5115890;28;19936;-46
2022/04/17 07:46:38;;;;;;;;;;;7.60;96.70;;;;;;5115737;28;19908;-44
2022/04/17 07:49:04;;;;;;;;;;;7.50;96.20;;;;;;5115643;28;19994;-47
2022/04/17 07:51:29;;;;;;;;;;;7.70;96.40;;;;;;5115611;28;20007;-45
2022/04/17 07:53:55;;;;;;;;;;;7.80;96.20;;;;;;5114546;28;20381;-45
2022/04/17 07:56:21;;;;;;;;;;;7.90;95.90;;;;;;5114878;28;20024;-47
2022/04/17 07:58:46;;;;;;;;;;;7.80;96.10;;;;;;5115716;28;19908;-46
2022/04/17 08:01:14;;;;;;;;;;;7.90;96.40;;;;;;5115686;28;19915;-45
2022/04/17 08:06:05;;;;;;;;;;;8.00;95.60;;;;;;5115341;28;19915;-46
2022/04/17 08:08:31;;;;;;;;;;;7.90;95.60;;;;;;5114954;28;19908;-46
2022/04/17 08:10:57;;;;;;;;;;;8.00;95.90;;;;;;5114835;28;19916;-48
2022/04/17 08:13:23;;;;;;;;;;;8.10;95.30;;;;;;5114711;28;19908;-44
2022/04/17 08:15:50;;;;;;;;;;;8.10;95.20;;;;;;5114897;28;20338;-45
2022/04/17 08:18:16;;;;;;;;;;;8.10;94.80;;;;;;5115098;28;20273;-47
2022/04/17 08:20:41;;;;;;;;;;;8.00;94.90;;;;;;5115003;28;19934;-47
2022/04/17 08:23:07;;;;;;;;;;;8.10;94.80;;;;;;5114852;28;19915;-45
2022/04/17 08:25:33;;;;;;;;;;;8.20;94.70;;;;;;5114851;28;19908;-45
2022/04/17 08:27:58;;;;;;;;;;;8.30;94.90;;;;;;5114668;28;19987;-46
2022/04/17 08:30:25;;;;;;;;;;;8.30;94.10;;;;;;5113899;28;19912;-44
2022/04/17 08:32:50;;;;;;;;;;;8.30;94.30;;;;;;5114477;28;20396;-46
2022/04/17 08:35:16;;;;;;;;;;;8.40;94.40;;;;;;5114471;28;19907;-46
2022/04/17 08:37:45;;;;;;;;;;;8.40;93.50;;;;;;5096574;28;19908;-45
2022/04/17 08:40:11;;;;;;;;;;;8.50;93.90;;;;;;5114549;28;20379;-44
2022/04/17 08:42:37;;;;;;;;;;;8.60;93.80;;;;;;5114724;28;19930;-45
2022/04/17 08:45:02;;;;;;;;;;;8.60;93.50;;;;;;5114414;28;20354;-46
2022/04/17 08:47:29;;;;;;;;;;;8.70;93.60;;;;;;5114439;28;19908;-44
2022/04/17 08:49:55;;;;;;;;;;;9.00;93.40;;;;;;5114200;28;19986;-45
2022/04/17 08:52:21;;;;;;;;;;;9.10;93.50;;;;;;5114361;28;19912;-43
2022/04/17 08:54:46;;;;;;;;;;;9.10;93.30;;;;;;5114240;28;20336;-44
2022/04/17 08:57:12;;;;;;;;;;;9.10;93.60;;;;;;5114076;28;20308;-45
2022/04/17 08:59:38;;;;;;;;;;;9.30;93.30;;;;;;5114108;28;19961;-44
2022/04/17 09:02:04;;;;;;;;;;;9.30;93.40;;;;;;5114266;28;19995;-44
2022/04/17 09:04:30;;;;;;;;;;;9.50;93.30;;;;;;5113877;28;19911;-45
2022/04/17 09:06:56;;;;;;;;;;;9.20;93.10;;;;;;5113798;28;19961;-43
2022/04/17 09:09:22;;;;;;;;;;;9.50;93.40;;;;;;5114040;28;20419;-45
2022/04/17 09:11:52;;;;;;;;;;;9.40;93.20;;;;;;5114227;28;19912;-47
2022/04/17 09:14:19;;;;;;;;;;;9.10;93.40;;;;;;5114762;28;19930;-46
2022/04/17 09:16:49;;;;;;;;;;;9.00;93.80;;;;;;5114364;28;20022;-44
2022/04/17 09:19:15;;;;;;;;;;;9.00;93.30;;;;;;5114287;28;19912;-44
2022/04/17 09:21:41;;;;;;;;;;;9.30;93.70;;;;;;5114295;28;19945;-43
2022/04/17 09:24:17;;;;;;;;;;;9.60;92.60;;;;;;5114139;28;19951;-45
2022/04/17 09:26:49;;;;;;;;;;;9.60;91.90;;;;;;5114340;28;20338;-46
2022/04/17 09:29:19;;;;;;;;;;;9.50;91.80;;;;;;5113757;28;20265;-44
2022/04/17 09:31:45;;;;;;;;;;;9.60;91.80;;;;;;5114181;28;19991;-43
2022/04/17 09:34:10;;;;;;;;;;;9.70;91.40;;;;;;5113983;28;19908;-46
2022/04/17 09:36:37;;;;;;;;;;;9.60;91.00;;;;;;5114177;28;19908;-44
2022/04/17 09:39:15;;;;;;;;;;;9.80;91.60;;;;;;5114054;28;19934;-44
2022/04/17 09:41:59;;;;;;;;;;;9.70;90.60;;;;;;5113607;28;19912;-46
2022/04/17 09:44:46;;;;;;;;;;;9.80;90.20;;;;;;5113515;28;20369;-44
2022/04/17 09:47:16;;;;;;;;;;;9.70;91.00;;;;;;5113958;28;19907;-46
2022/04/17 09:50:08;;;;;;;;;;;9.50;91.20;;;;;;5113711;28;19957;-45
2022/04/17 09:52:39;;;;;;;;;;;9.80;90.90;;;;;;5111050;28;19916;-44
2022/04/17 09:55:05;;;;;;;;;;;9.30;91.20;;;;;;5113451;28;19912;-45
2022/04/17 09:57:31;;;;;;;;;;;9.50;90.90;;;;;;5113431;28;19908;-46
2022/04/17 09:59:58;;;;;;;;;;;9.70;91.10;;;;;;5113428;28;19908;-46
2022/04/17 10:02:25;;;;;;;;;;;9.60;90.70;;;;;;5095207;28;19921;-45
2022/04/17 10:04:50;;;;;;;;;;;9.70;90.70;;;;;;5095459;28;19953;-46
2022/04/17 10:07:18;;;;;;;;;;;9.80;91.00;;;;;;5113733;28;19912;-43
2022/04/17 10:09:45;;;;;;;;;;;9.80;90.50;;;;;;5113868;28;19953;-44
2022/04/17 10:12:14;;;;;;;;;;;10.00;90.50;;;;;;5113481;28;19916;-45
2022/04/17 10:14:40;;;;;;;;;;;10.00;90.30;;;;;;5113394;28;19907;-43
2022/04/17 10:17:06;;;;;;;;;;;10.30;90.30;;;;;;5113227;28;19919;-48
2022/04/17 10:19:33;;;;;;;;;;;9.90;91.00;;;;;;5117211;28;20285;-44
2022/04/17 10:22:00;;;;;;;;;;;10.30;90.00;;;;;;5117238;28;20003;-45
2022/04/17 10:24:25;;;;;;;;;;;10.50;89.40;;;;;;5117551;28;19950;-44
2022/04/17 10:26:52;;;;;;;;;;;10.50;89.30;;;;;;5116916;28;19908;-46
2022/04/17 10:29:21;;;;;;;;;;;10.60;88.90;;;;;;5116906;28;19914;-49
2022/04/17 10:31:58;;;;;;;;;;;10.60;89.10;;;;;;5116822;28;19920;-44
2022/04/17 10:34:42;;;;;;;;;;;10.70;89.10;;;;;;5117173;28;19915;-44
2022/04/17 10:37:08;;;;;;;;;;;10.80;89.90;;;;;;5117000;28;19918;-44
2022/04/17 10:39:36;;;;;;;;;;;10.60;90.10;;;;;;5116874;28;19912;-47
2022/04/17 10:42:02;;;;;;;;;;;10.70;86.80;;;;;;5116629;28;20007;-45
2022/04/17 10:44:31;;;;;;;;;;;10.90;89.00;;;;;;5116555;28;19957;-46
2022/04/17 10:46:56;;;;;;;;;;;10.90;89.70;;;;;;5117022;28;19994;-45
2022/04/17 10:49:27;;;;;;;;;;;10.80;90.00;;;;;;5116555;28;19955;-44
2022/04/17 10:51:54;;;;;;;;;;;10.80;90.40;;;;;;5117106;28;19915;-46
2022/04/17 10:54:19;;;;;;;;;;;11.00;90.20;;;;;;5117072;28;20090;-49
2022/04/17 10:56:54;;;;;;;;;;;11.30;90.20;;;;;;5116632;28;19912;-49
2022/04/17 10:59:26;;;;;;;;;;;11.30;89.50;;;;;;5116669;28;19914;-47
2022/04/17 11:01:59;;;;;;;;;;;11.50;89.90;;;;;;5116727;28;19981;-46
2022/04/17 11:04:28;;;;;;;;;;;11.70;90.10;;;;;;5116631;28;19963;-44
2022/04/17 11:06:54;;;;;;;;;;;11.40;90.00;;;;;;5116439;28;20362;-46
2022/04/17 11:09:20;;;;;;;;;;;10.90;90.70;;;;;;5116288;28;19918;-46
2022/04/17 11:11:45;;;;;;;;;;;11.20;91.00;;;;;;5116206;28;19989;-46
2022/04/17 11:14:20;;;;;;;;;;;11.30;90.20;;;;;;5115866;28;20003;-44
2022/04/17 11:16:49;;;;;;;;;;;11.20;90.10;;;;;;5116193;28;20003;-44
2022/04/17 11:19:16;;;;;;;;;;;11.20;90.40;;;;;;5116414;28;19945;-44
2022/04/17 11:21:50;;;;;;;;;;;11.10;90.00;;;;;;5116594;28;19912;-47
2022/04/17 11:24:15;;;;;;;;;;;11.00;88.90;;;;;;5116056;28;19912;-45
2022/04/17 11:26:53;;;;;;;;;;;11.10;89.80;;;;;;5116238;28;19907;-46
2022/04/17 11:29:37;;;;;;;;;;;11.10;89.80;;;;;;5116306;28;19908;-45
2022/04/17 11:32:23;;;;;;;;;;;11.10;90.10;;;;;;5116034;28;19972;-47
2022/04/17 11:34:52;;;;;;;;;;;11.40;89.10;;;;;;5115523;28;20298;-46
2022/04/17 11:37:18;;;;;;;;;;;11.30;88.50;;;;;;5115743;28;19953;-46
2022/04/17 11:39:44;;;;;;;;;;;11.30;89.00;;;;;;5115662;28;19912;-45
2022/04/17 11:42:10;;;;;;;;;;;11.40;87.00;;;;;;5115956;28;19908;-45
2022/04/17 11:44:35;;;;;;;;;;;11.40;86.10;;;;;;5115755;28;19908;-44
2022/04/17 11:47:01;;;;;;;;;;;11.60;86.50;;;;;;5115413;28;19908;-44
2022/04/17 11:49:32;;;;;;;;;;;11.70;86.40;;;;;;5116049;28;19908;-47
2022/04/17 11:52:14;;;;;;;;;;;11.20;85.40;;;;;;5097351;28;19915;-45
2022/04/17 11:54:40;;;;;;;;;;;11.40;85.10;;;;;;5115231;28;19908;-48
2022/04/17 11:57:06;;;;;;;;;;;11.80;85.40;;;;;;5115007;28;19915;-44
2022/04/17 11:59:47;;;;;;;;;;;12.10;83.30;;;;;;5115170;28;19962;-44
2022/04/17 12:02:16;;;;;;;;;;;11.60;82.70;;;;;;5115216;28;19907;-47
2022/04/17 12:04:42;;;;;;;;;;;12.00;84.10;;;;;;5097485;28;19933;-49
2022/04/17 12:07:11;;;;;;;;;;;12.00;82.10;;;;;;5115541;28;19908;-45
2022/04/17 12:09:38;;;;;;;;;;;12.00;83.10;;;;;;5115062;28;19914;-49
2022/04/17 12:12:13;;;;;;;;;;;11.90;81.00;;;;;;5115498;28;20315;-47
2022/04/17 12:14:39;;;;;;;;;;;11.50;81.30;;;;;;5096688;28;19946;-46
2022/04/17 12:17:05;;;;;;;;;;;11.80;81.50;;;;;;5115058;28;19954;-47
2022/04/17 12:19:30;;;;;;;;;;;12.10;81.10;;;;;;5115129;28;19994;-47
2022/04/17 12:21:56;;;;;;;;;;;12.10;80.80;;;;;;5115086;28;19908;-46
2022/04/17 12:24:27;;;;;;;;;;;12.30;81.10;;;;;;5115323;28;20281;-46
2022/04/17 12:26:53;;;;;;;;;;;12.30;79.90;;;;;;5115171;28;20003;-43
2022/04/17 12:29:19;;;;;;;;;;;12.50;77.90;;;;;;5115166;28;19915;-48
2022/04/17 12:31:45;;;;;;;;;;;12.60;77.40;;;;;;5096397;28;19928;-44
2022/04/17 12:34:13;;;;;;;;;;;12.00;77.50;;;;;;5114890;28;19908;-47
2022/04/17 12:36:40;;;;;;;;;;;12.30;77.10;;;;;;5114760;28;19908;-44
2022/04/17 12:39:07;;;;;;;;;;;11.70;78.40;;;;;;5114684;28;19973;-45
2022/04/17 12:41:42;;;;;;;;;;;11.60;79.40;;;;;;5114214;28;19908;-46
2022/04/17 12:44:11;;;;;;;;;;;11.60;80.10;;;;;;5115194;28;19915;-46
2022/04/17 12:46:42;;;;;;;;;;;11.70;80.50;;;;;;5114427;28;20273;-47
2022/04/17 12:49:08;;;;;;;;;;;11.60;79.50;;;;;;5114647;28;20010;-46
2022/04/17 12:51:34;;;;;;;;;;;11.80;79.90;;;;;;5114420;28;20014;-45
2022/04/17 12:54:00;;;;;;;;;;;11.70;78.90;;;;;;5096422;28;19961;-46
2022/04/17 12:56:26;;;;;;;;;;;11.40;80.50;;;;;;5114153;28;19943;-45
2022/04/17 12:58:56;;;;;;;;;;;11.40;81.10;;;;;;5114244;28;19915;-46
2022/04/17 13:01:23;;;;;;;;;;;11.60;81.80;;;;;;5114170;28;19911;-44
2022/04/17 13:03:49;;;;;;;;;;;12.30;80.90;;;;;;5113655;28;20289;-44
2022/04/17 13:06:19;;;;;;;;;;;12.20;80.40;;;;;;5095801;28;19916;-47
2022/04/17 13:09:10;;;;;;;;;;;12.00;79.80;;;;;;5114789;28;20277;-46
2022/04/17 13:11:36;;;;;;;;;;;12.60;79.50;;;;;;5109248;28;19974;-43
2022/04/17 13:14:02;;;;;;;;;;;12.50;79.50;;;;;;5113558;28;19908;-46
2022/04/17 13:16:31;;;;;;;;;;;12.00;79.50;;;;;;5096202;28;20239;-47
2022/04/17 13:18:57;;;;;;;;;;;12.30;79.90;;;;;;5114280;28;19908;-47
2022/04/17 13:21:23;;;;;;;;;;;12.30;78.60;;;;;;5114352;28;19908;-45
2022/04/17 13:23:49;;;;;;;;;;;12.30;79.00;;;;;;5114049;28;19911;-45
2022/04/17 13:26:15;;;;;;;;;;;12.60;79.40;;;;;;5114039;28;20125;-45
2022/04/17 13:28:40;;;;;;;;;;;12.50;79.50;;;;;;5114048;28;19915;-44
2022/04/17 13:31:07;;;;;;;;;;;12.40;80.00;;;;;;5113920;28;20330;-45
2022/04/17 13:33:32;;;;;;;;;;;12.60;79.20;;;;;;5114112;28;19933;-47
2022/04/17 13:35:58;;;;;;;;;;;12.70;78.40;;;;;;5113955;28;19907;-46
2022/04/17 13:38:23;;;;;;;;;;;12.70;79.00;;;;;;5113647;28;20000;-48
2022/04/17 13:40:49;;;;;;;;;;;12.70;79.40;;;;;;5113923;28;20320;-45
2022/04/17 13:43:14;;;;;;;;;;;11.80;80.20;;;;;;5114262;28;19912;-44
2022/04/17 13:45:40;;;;;;;;;;;11.90;81.20;;;;;;5114091;28;19915;-45
2022/04/17 13:48:07;;;;;;;;;;;11.90;81.30;;;;;;5113740;28;19907;-45
2022/04/17 13:50:34;;;;;;;;;;;11.80;81.20;;;;;;5113940;28;20021;-45
2022/04/17 13:53:00;;;;;;;;;;;11.90;81.10;;;;;;5115170;28;20313;-45
2022/04/17 13:55:27;;;;;;;;;;;12.40;80.10;;;;;;5117771;28;19912;-45
2022/04/17 13:57:53;;;;;;;;;;;12.30;80.50;;;;;;5118171;28;19915;-44
2022/04/17 14:00:19;;;;;;;;;;;12.80;79.30;;;;;;5117749;28;20305;-45
2022/04/17 14:02:44;;;;;;;;;;;12.90;79.10;;;;;;5117858;28;19912;-44
2022/04/17 14:05:10;;;;;;;;;;;12.80;79.40;;;;;;5117636;28;20062;-45
2022/04/17 14:07:36;;;;;;;;;;;12.70;79.70;;;;;;5117940;28;19915;-44
2022/04/17 14:10:01;;;;;;;;;;;12.70;80.00;;;;;;5133454;27;20356;-45
2022/04/17 14:12:28;;;;;;;;;;;12.90;80.00;;;;;;5117265;28;19966;-44
2022/04/17 14:14:56;;;;;;;;;;;12.90;79.00;;;;;;5117679;28;19930;-45
2022/04/17 14:17:22;;;;;;;;;;;12.60;79.60;;;;;;5117170;28;19947;-45
2022/04/17 14:19:47;;;;;;;;;;;12.70;79.60;;;;;;5117090;28;19908;-45
2022/04/17 14:22:13;;;;;;;;;;;12.70;79.20;;;;;;5117330;28;19908;-45
2022/04/17 14:24:39;;;;;;;;;;;12.40;79.30;;;;;;5117398;28;19908;-45
2022/04/17 14:27:04;;;;;;;;;;;12.70;79.50;;;;;;5117387;28;20281;-46
2022/04/17 14:29:31;;;;;;;;;;;12.80;78.40;;;;;;5117531;28;19908;-45
2022/04/17 14:31:56;;;;;;;;;;;12.70;78.10;;;;;;5117157;28;19920;-46
2022/04/17 14:34:22;;;;;;;;;;;13.00;78.50;;;;;;5117369;28;19908;-45
2022/04/17 14:36:47;;;;;;;;;;;13.00;77.40;;;;;;5116852;28;20219;-44
2022/04/17 14:39:13;;;;;;;;;;;12.90;78.60;;;;;;5116959;28;19938;-47